In Rescue
 
Open Full Screen Window  High Contrast Mode
Wind Gusting 00 knots
04
March 19, 2019 7:21 PM EDT
Weather Information
Wind Direction
  350 °
Wind Speed
  04 kt (5 mph)
Wind Gust
  00 kt (0 mph)
Altimeter
30.20 in
Visibility
10 SM
Temperature
04° C
39° F
Dewpoint
-04° C
25° F
Humidity
56%
Sky Condition
Clear
VFR

METAR KPZQ 192321Z AUTO 35004KT 10SM CLR 04/M04 A3020 RMK AO2 T00351036

FAA Disclaimer: The data displayed is for advisory purposes only and is not to be used for flight planning or operations.